Time;durP1;ratioP1;P1;durP2;ratioP2;P2;SDS_P1;SDS_P2;PMS_P1;PMS_P2;Temp;Humidity;BMP_temperature;BMP_pressure;BME280_temperature;BME280_humidity;BME280_pressure;Samples;Min_cycle;Max_cycle;Signal;HPM_P1;HPM_P2
2023/07/29 00:01:31;;;;;;;2.80;2.63;;;;;;;24.93;38.21;99198.00;5011869;28;20601;-66
2023/07/29 00:03:58;;;;;;;3.37;3.07;;;;;;;25.08;37.72;99199.66;5012873;28;20194;-67
2023/07/29 00:06:25;;;;;;;4.03;2.77;;;;;;;25.20;37.59;99200.00;5012825;28;20194;-67
2023/07/29 00:08:51;;;;;;;2.87;2.50;;;;;;;25.32;37.56;99200.38;5013106;28;20194;-66
2023/07/29 00:11:18;;;;;;;3.40;2.40;;;;;;;25.30;37.39;99192.50;5013162;28;20194;-66
2023/07/29 00:13:45;;;;;;;2.97;2.77;;;;;;;25.32;37.35;99189.50;5012094;28;20218;-66
2023/07/29 00:16:15;;;;;;;2.70;2.50;;;;;;;25.25;37.49;99189.03;5012987;28;20194;-65
2023/07/29 00:18:42;;;;;;;3.60;2.93;;;;;;;25.16;37.81;99190.81;5013197;28;20193;-66
2023/07/29 00:21:08;;;;;;;3.00;2.70;;;;;;;25.18;38.04;99191.34;5012527;28;20731;-65
2023/07/29 00:23:35;;;;;;;3.17;2.87;;;;;;;25.14;38.39;99195.78;5012879;28;20229;-65
2023/07/29 00:26:02;;;;;;;3.37;2.80;;;;;;;25.13;38.54;99196.84;5011505;28;20248;-66
2023/07/29 00:28:28;;;;;;;3.40;2.80;;;;;;;25.14;38.31;99203.94;5012507;28;20689;-67
2023/07/29 00:30:55;;;;;;;3.40;2.80;;;;;;;25.07;38.16;99198.84;5012642;28;20207;-68
2023/07/29 00:33:23;;;;;;;4.70;3.60;;;;;;;25.00;38.79;99193.78;5012333;28;20202;-66
2023/07/29 00:35:50;;;;;;;5.43;3.07;;;;;;;24.83;39.36;99198.97;5012746;28;20252;-66
2023/07/29 00:38:17;;;;;;;3.83;2.50;;;;;;;24.85;39.76;99199.50;5011253;28;20252;-67
2023/07/29 00:40:44;;;;;;;2.87;2.60;;;;;;;24.89;39.55;99208.66;5012511;28;20229;-67
2023/07/29 00:43:10;;;;;;;3.10;2.80;;;;;;;24.85;39.59;99202.22;5012259;28;20202;-67
2023/07/29 00:45:38;;;;;;;3.57;2.97;;;;;;;24.83;39.26;99198.19;5011672;28;20228;-67
2023/07/29 00:48:05;;;;;;;2.90;2.70;;;;;;;24.81;39.86;99208.50;5012253;28;20201;-67
2023/07/29 00:50:34;;;;;;;2.83;2.63;;;;;;;24.74;39.99;99199.91;5012196;28;20194;-66
2023/07/29 00:53:00;;;;;;;2.70;2.50;;;;;;;24.61;40.50;99195.22;5012497;28;20202;-67
2023/07/29 00:55:28;;;;;;;5.23;2.50;;;;;;;24.48;41.01;99196.75;5012445;28;20198;-66
2023/07/29 00:57:55;;;;;;;2.90;2.70;;;;;;;24.37;41.53;99189.03;5012443;28;20194;-66
2023/07/29 01:00:22;;;;;;;3.10;2.90;;;;;;;24.24;41.74;99187.84;5011950;28;20232;-66
2023/07/29 01:02:49;;;;;;;2.87;2.67;;;;;;;24.28;41.77;99180.75;5011753;28;20276;-66
2023/07/29 01:05:18;;;;;;;3.20;2.80;;;;;;;24.29;41.60;99185.06;5012254;28;20189;-67
2023/07/29 01:07:52;;;;;;;3.50;2.73;;;;;;;24.28;41.94;99180.75;5012291;28;20201;-66
2023/07/29 01:10:28;;;;;;;2.90;2.70;;;;;;;24.34;41.87;99190.41;5011588;28;20194;-67
2023/07/29 01:13:02;;;;;;;3.17;2.73;;;;;;;24.52;41.29;99197.78;5012359;28;20201;-64
2023/07/29 01:15:34;;;;;;;3.00;2.67;;;;;;;24.60;41.36;99193.59;5011357;28;20186;-66
2023/07/29 01:18:06;;;;;;;3.43;2.97;;;;;;;24.73;40.85;99190.97;5012007;28;20699;-66
2023/07/29 01:20:38;;;;;;;3.93;2.40;;;;;;;24.82;41.04;99186.50;5011800;28;20213;-66
2023/07/29 01:23:06;;;;;;;2.87;2.77;;;;;;;24.92;40.43;99185.53;5012411;28;20249;-66
2023/07/29 01:25:34;;;;;;;4.17;2.70;;;;;;;24.89;40.62;99192.38;5011678;28;20226;-65
2023/07/29 01:28:00;;;;;;;4.17;2.60;;;;;;;24.93;40.48;99193.38;5011285;28;20263;-66
2023/07/29 01:30:34;;;;;;;4.07;2.60;;;;;;;24.88;40.69;99195.38;5011799;28;20661;-66
2023/07/29 01:33:08;;;;;;;2.90;2.70;;;;;;;24.89;40.17;99192.38;5011378;28;20724;-66
2023/07/29 01:35:41;;;;;;;4.10;3.10;;;;;;;24.84;40.40;99197.84;5011828;28;20240;-66
2023/07/29 01:38:14;;;;;;;2.70;2.50;;;;;;;24.79;40.42;99197.94;5012077;28;20194;-67
2023/07/29 01:40:43;;;;;;;3.70;2.90;;;;;;;24.77;40.51;99188.47;5011663;28;20210;-65
2023/07/29 01:43:11;;;;;;;4.00;3.60;;;;;;;24.74;40.95;99195.31;5011722;28;20191;-66
2023/07/29 01:45:38;;;;;;;4.03;3.73;;;;;;;24.65;40.77;99198.97;5011614;28;20197;-66
2023/07/29 01:48:05;;;;;;;3.93;3.43;;;;;;;24.48;41.25;99198.66;5010894;28;20673;-66
2023/07/29 01:50:32;;;;;;;3.63;3.27;;;;;;;24.39;41.71;99193.06;5014799;28;20206;-65
2023/07/29 01:52:59;;;;;;;4.57;3.50;;;;;;;24.43;41.99;99198.72;5015706;28;20334;-65
2023/07/29 01:55:26;;;;;;;4.63;4.23;;;;;;;24.53;41.77;99202.13;5015497;28;20233;-65
2023/07/29 01:57:54;;;;;;;4.03;3.73;;;;;;;24.56;41.72;99198.81;5014410;28;20263;-66
2023/07/29 02:00:22;;;;;;;4.10;3.77;;;;;;;24.62;41.63;99203.09;5015346;28;20198;-67
2023/07/29 02:02:49;;;;;;;4.63;4.27;;;;;;;24.64;40.72;99205.53;5015186;28;20570;-65
2023/07/29 02:05:15;;;;;;;6.57;4.60;;;;;;;24.59;40.82;99209.06;5015351;28;20272;-65
2023/07/29 02:07:42;;;;;;;4.37;3.97;;;;;;;24.47;41.18;99200.56;5015048;28;20198;-66
2023/07/29 02:10:09;;;;;;;4.40;4.10;;;;;;;24.36;41.77;99204.53;5014220;28;20205;-66
2023/07/29 02:12:36;;;;;;;4.40;4.00;;;;;;;24.36;42.02;99204.53;5015023;28;20244;-66
2023/07/29 02:15:05;;;;;;;4.80;4.30;;;;;;;24.42;41.86;99216.13;5015178;28;20276;-66
2023/07/29 02:17:31;;;;;;;4.67;3.70;;;;;;;24.52;41.62;99224.94;5015172;28;20194;-66
2023/07/29 02:19:58;;;;;;;4.40;4.00;;;;;;;24.65;41.43;99224.25;5015151;28;20228;-67
2023/07/29 02:22:25;;;;;;;7.17;4.17;;;;;;;24.66;41.44;99231.28;5013697;28;20217;-66
2023/07/29 02:24:52;;;;;;;7.43;4.50;;;;;;;24.63;41.21;99229.16;5015248;28;20229;-66
2023/07/29 02:27:18;;;;;;;3.93;3.63;;;;;;;24.56;41.95;99209.69;5014927;28;20201;-66
2023/07/29 02:29:45;;;;;;;4.87;4.50;;;;;;;24.55;42.32;99212.69;5014996;28;20260;-67
2023/07/29 02:32:13;;;;;;;9.73;4.47;;;;;;;24.48;42.59;99213.06;5014806;28;20206;-66
2023/07/29 02:34:40;;;;;;;5.53;4.30;;;;;;;24.45;42.59;99215.53;5014143;28;20198;-66
2023/07/29 02:37:06;;;;;;;4.87;4.07;;;;;;;24.40;42.65;99208.28;5014714;28;20233;-67
2023/07/29 02:39:33;;;;;;;4.07;3.80;;;;;;;24.41;42.94;99215.31;5014873;28;20205;-66
2023/07/29 02:42:00;;;;;;;4.50;4.20;;;;;;;24.41;42.71;99218.03;5014402;28;20291;-66
2023/07/29 02:44:26;;;;;;;5.43;4.60;;;;;;;24.31;42.69;99211.94;5014403;28;20259;-66
2023/07/29 02:46:55;;;;;;;4.20;3.80;;;;;;;24.27;43.36;99214.44;5013634;28;20201;-67
2023/07/29 02:49:23;;;;;;;6.07;4.37;;;;;;;24.29;43.43;99225.78;5014100;28;20252;-66
2023/07/29 02:51:50;;;;;;;3.97;3.67;;;;;;;24.28;43.44;99226.91;5014224;28;20211;-66
2023/07/29 02:54:17;;;;;;;4.33;4.03;;;;;;;24.29;43.31;99219.53;5014500;28;20190;-66
2023/07/29 02:56:43;;;;;;;4.43;3.97;;;;;;;24.26;43.51;99220.94;5014090;28;20210;-66
2023/07/29 02:59:10;;;;;;;4.63;4.30;;;;;;;24.17;43.49;99228.13;5013369;28;20198;-67
2023/07/29 03:01:37;;;;;;;6.70;4.53;;;;;;;24.10;44.06;99216.00;5013118;28;20232;-66
2023/07/29 03:04:04;;;;;;;4.93;4.10;;;;;;;24.02;44.28;99231.00;5014018;28;20213;-65
2023/07/29 03:06:32;;;;;;;5.63;3.90;;;;;;;24.04;44.50;99228.81;5014126;28;20197;-65
2023/07/29 03:08:58;;;;;;;4.10;3.80;;;;;;;24.09;44.15;99226.03;5013944;28;20201;-68
2023/07/29 03:11:25;;;;;;;4.60;3.93;;;;;;;24.17;44.00;99232.72;5013305;28;20205;-66
2023/07/29 03:13:52;;;;;;;6.37;4.17;;;;;;;24.24;43.92;99234.00;5014139;28;20263;-67
2023/07/29 03:16:18;;;;;;;4.73;4.20;;;;;;;24.27;43.97;99228.00;5013979;28;20255;-66
2023/07/29 03:18:45;;;;;;;5.23;4.03;;;;;;;24.21;43.54;99229.16;5013675;28;20742;-65
2023/07/29 03:21:12;;;;;;;3.63;3.33;;;;;;;24.04;43.57;99234.25;5012457;28;20237;-67
2023/07/29 03:23:40;;;;;;;4.17;3.83;;;;;;;23.97;43.98;99238.44;5013623;28;20268;-65
2023/07/29 03:26:10;;;;;;;6.13;4.43;;;;;;;23.92;44.02;99243.88;5013213;28;20573;-66
2023/07/29 03:28:38;;;;;;;5.87;4.03;;;;;;;23.88;44.04;99248.25;5013599;28;20197;-66
2023/07/29 03:31:05;;;;;;;4.27;3.60;;;;;;;23.92;44.50;99242.00;5013769;28;20205;-67
2023/07/29 03:33:32;;;;;;;3.87;3.43;;;;;;;24.06;44.03;99245.63;5013154;28;20201;-66
2023/07/29 03:35:58;;;;;;;7.33;3.60;;;;;;;24.16;42.97;99242.78;5012839;28;20201;-66
2023/07/29 03:38:25;;;;;;;5.00;3.70;;;;;;;24.25;43.11;99246.47;5013344;28;20624;-66
2023/07/29 03:40:54;;;;;;;3.40;3.20;;;;;;;24.31;43.23;99253.47;5013446;28;20208;-66
2023/07/29 03:43:21;;;;;;;4.20;3.30;;;;;;;24.40;42.47;99254.44;5012627;28;20637;-66
2023/07/29 03:45:47;;;;;;;4.90;4.03;;;;;;;24.57;42.23;99254.75;5013313;28;20275;-65
2023/07/29 03:48:14;;;;;;;4.10;3.80;;;;;;;24.63;42.09;99259.03;5013318;28;20197;-65
2023/07/29 03:50:41;;;;;;;4.30;3.90;;;;;;;24.66;41.92;99252.19;5013210;28;20658;-66
2023/07/29 03:53:09;;;;;;;3.70;3.40;;;;;;;24.66;41.88;99258.44;5012167;28;20677;-65
2023/07/29 03:55:36;;;;;;;3.70;3.47;;;;;;;24.79;41.56;99262.38;5013500;28;20244;-65
2023/07/29 03:58:04;;;;;;;5.50;3.30;;;;;;;24.89;41.61;99273.88;5012777;28;20736;-65
2023/07/29 04:00:31;;;;;;;3.60;3.20;;;;;;;24.86;41.73;99258.16;5012462;28;20719;-65
2023/07/29 04:02:58;;;;;;;3.40;2.77;;;;;;;25.07;41.27;99274.16;5013073;28;20249;-66
2023/07/29 04:05:24;;;;;;;2.00;1.90;;;;;;;25.24;41.74;99274.44;5013212;28;20222;-71
2023/07/29 04:07:52;;;;;;;4.07;2.60;;;;;;;26.27;39.51;99282.94;5013054;28;20194;-72
2023/07/29 04:10:19;;;;;;;3.03;2.83;;;;;;;27.14;37.40;99281.59;5013035;28;20661;-72
2023/07/29 04:12:46;;;;;;;3.80;2.70;;;;;;;27.96;36.00;99288.28;5011911;28;20197;-70
2023/07/29 04:15:14;;;;;;;5.50;3.23;;;;;;;28.68;34.76;99290.34;5011546;28;20198;-71
2023/07/29 04:17:41;;;;;;;3.27;3.00;;;;;;;29.42;33.25;99290.22;5012134;28;20669;-69
2023/07/29 04:20:08;;;;;;;3.43;2.73;;;;;;;29.82;32.29;99295.16;5012289;28;20661;-71
2023/07/29 04:22:35;;;;;;;2.83;2.63;;;;;;;30.35;31.27;99294.66;5012184;28;20257;-71
2023/07/29 04:25:04;;;;;;;4.00;3.60;;;;;;;30.60;30.78;99294.53;5011248;28;20279;-69
2023/07/29 04:27:31;;;;;;;5.27;2.77;;;;;;;31.20;30.42;99300.41;5012191;28;20194;-70
2023/07/29 04:29:57;;;;;;;12.70;4.17;;;;;;;31.46;29.46;99295.53;5012421;28;20198;-69
2023/07/29 04:32:25;;;;;;;3.60;3.30;;;;;;;31.92;28.94;99311.72;5012240;28;20202;-69
2023/07/29 04:34:52;;;;;;;7.53;3.60;;;;;;;31.84;28.68;99309.06;5011777;28;20225;-70
2023/07/29 04:37:19;;;;;;;3.80;3.10;;;;;;;31.96;28.56;99312.63;5011739;28;20193;-70
2023/07/29 04:39:46;;;;;;;7.30;4.07;;;;;;;32.43;28.59;99311.13;5011824;28;20256;-68
2023/07/29 04:42:13;;;;;;;3.43;3.10;;;;;;;32.51;28.27;99314.91;5011780;28;20728;-69
2023/07/29 04:44:41;;;;;;;4.07;3.67;;;;;;;32.71;28.02;99305.72;5011618;28;20197;-70
2023/07/29 04:47:08;;;;;;;4.57;3.40;;;;;;;32.45;28.34;99306.06;5011757;28;20289;-69
2023/07/29 04:49:36;;;;;;;3.43;3.23;;;;;;;32.62;28.40;99305.06;5011297;28;20240;-69
2023/07/29 04:52:03;;;;;;;4.27;3.43;;;;;;;32.63;27.90;99301.94;5012135;28;20264;-70
2023/07/29 04:54:29;;;;;;;4.40;3.87;;;;;;;32.93;27.67;99300.56;5011481;28;20252;-70
2023/07/29 04:56:56;;;;;;;10.37;4.07;;;;;;;33.17;27.27;99303.25;5011525;28;20248;-70
2023/07/29 04:59:23;;;;;;;8.00;3.90;;;;;;;33.20;27.82;99302.53;5011921;28;20248;-70
2023/07/29 05:01:50;;;;;;;10.70;4.43;;;;;;;33.28;26.97;99307.09;5011928;28;20257;-70
2023/07/29 05:04:17;;;;;;;5.40;3.83;;;;;;;33.55;26.76;99311.03;5010812;28;20198;-70
2023/07/29 05:06:45;;;;;;;10.47;4.43;;;;;;;33.15;27.37;99316.53;5011841;28;20190;-69
2023/07/29 05:09:15;;;;;;;5.53;3.73;;;;;;;33.12;27.23;99314.47;5011449;28;20190;-69
2023/07/29 05:11:43;;;;;;;6.97;3.57;;;;;;;33.15;27.50;99311.03;5011990;28;20248;-69
2023/07/29 05:14:10;;;;;;;8.13;3.40;;;;;;;33.41;27.13;99318.09;5010508;28;20655;-71
2023/07/29 05:16:36;;;;;;;9.63;4.18;;;;;;;33.71;26.60;99324.88;5011507;28;20197;-72
2023/07/29 05:19:03;;;;;;;5.20;3.90;;;;;;;34.08;25.79;99320.78;5009295;28;20260;-70
2023/07/29 05:21:30;;;;;;;5.93;3.60;;;;;;;33.84;26.31;99315.41;5011835;28;20198;-69
2023/07/29 05:23:58;;;;;;;8.83;3.70;;;;;;;33.74;26.74;99318.63;5011439;28;20233;-72
2023/07/29 05:26:25;;;;;;;4.20;3.80;;;;;;;33.88;26.44;99321.81;5013747;28;20640;-69
2023/07/29 05:28:52;;;;;;;4.10;3.80;;;;;;;33.88;26.46;99319.06;5014958;28;20244;-70
2023/07/29 05:31:19;;;;;;;3.90;3.60;;;;;;;33.71;26.37;99316.59;5015110;28;20194;-68
2023/07/29 05:33:45;;;;;;;9.53;3.30;;;;;;;33.83;26.32;99317.34;5014674;28;20189;-69
2023/07/29 05:36:13;;;;;;;4.13;3.20;;;;;;;34.08;26.37;99310.53;5012953;28;20279;-69
2023/07/29 05:38:39;;;;;;;3.50;2.90;;;;;;;33.95;26.95;99322.78;5014020;28;20276;-70
2023/07/29 05:41:09;;;;;;;3.55;3.28;;;;;;;34.17;26.08;99326.91;5015172;28;20252;-70
2023/07/29 05:43:36;;;;;;;4.10;3.33;;;;;;;33.95;26.33;99330.25;5012408;28;20226;-72
2023/07/29 05:46:03;;;;;;;4.15;3.40;;;;;;;34.15;26.11;99337.47;5012426;28;20194;-71
2023/07/29 05:48:29;;;;;;;3.42;3.13;;;;;;;34.66;25.34;99341.97;5014446;28;20236;-70
2023/07/29 05:50:56;;;;;;;8.68;3.30;;;;;;;34.93;25.20;99332.75;5014923;28;20245;-69
2023/07/29 05:53:23;;;;;;;2.70;2.50;;;;;;;34.58;25.78;99337.44;5012662;28;20267;-68
2023/07/29 05:55:50;;;;;;;4.40;3.17;;;;;;;34.54;25.82;99325.50;5015297;28;20186;-70
2023/07/29 05:58:18;;;;;;;4.32;2.42;;;;;;;34.70;25.74;99332.59;5015547;28;20197;-69
2023/07/29 06:00:44;;;;;;;3.45;3.15;;;;;;;34.55;26.02;99329.88;5015324;28;20198;-69
2023/07/29 06:03:11;;;;;;;5.43;3.70;;;;;;;34.63;25.61;99332.44;5014322;28;20218;-70
2023/07/29 06:05:38;;;;;;;4.40;3.10;;;;;;;34.39;26.03;99321.59;5015542;28;20245;-68
2023/07/29 06:08:05;;;;;;;3.10;2.90;;;;;;;34.37;26.05;99323.91;5014502;28;20198;-68
2023/07/29 06:10:31;;;;;;;3.83;3.60;;;;;;;34.34;26.37;99326.59;5012604;28;20202;-72
2023/07/29 06:12:58;;;;;;;6.22;3.22;;;;;;;34.58;25.63;99323.63;5014339;28;20677;-69
2023/07/29 06:15:26;;;;;;;3.33;3.00;;;;;;;34.76;25.73;99319.31;5014039;28;20264;-69
2023/07/29 06:17:53;;;;;;;4.15;3.10;;;;;;;34.66;25.64;99323.44;5014571;28;20246;-69
2023/07/29 06:20:19;;;;;;;4.85;4.35;;;;;;;34.42;26.44;99320.09;5014180;28;20206;-68
2023/07/29 06:22:46;;;;;;;3.05;2.85;;;;;;;34.58;25.06;99320.88;5014739;28;20218;-67
2023/07/29 06:25:13;;;;;;;4.38;2.95;;;;;;;34.54;25.41;99328.25;5014246;28;20709;-72
2023/07/29 06:27:39;;;;;;;5.05;3.60;;;;;;;34.38;26.92;99333.81;5013553;28;20615;-73
2023/07/29 06:30:07;;;;;;;7.43;3.17;;;;;;;34.37;26.05;99323.13;5013955;28;20201;-71
2023/07/29 06:32:36;;;;;;;6.45;3.05;;;;;;;34.35;26.23;99315.19;5014295;28;20260;-73
2023/07/29 06:35:02;;;;;;;4.30;2.60;;;;;;;34.49;25.60;99325.78;5013511;28;20245;-69
2023/07/29 06:37:29;;;;;;;2.88;2.42;;;;;;;34.82;24.59;99326.22;5013058;28;20695;-72
2023/07/29 06:39:56;;;;;;;2.50;2.30;;;;;;;34.89;24.75;99320.81;5014195;28;20276;-68
2023/07/29 06:42:22;;;;;;;2.55;2.35;;;;;;;34.69;25.44;99316.38;5013992;28;20229;-70
2023/07/29 06:44:49;;;;;;;6.70;2.83;;;;;;;34.34;26.41;99313.59;5013842;28;20264;-65
2023/07/29 06:47:16;;;;;;;3.00;2.75;;;;;;;34.47;25.71;99311.53;5014502;28;20210;-65
2023/07/29 06:49:44;;;;;;;5.55;2.90;;;;;;;34.81;24.96;99316.31;5014239;28;20681;-65
2023/07/29 06:52:11;;;;;;;3.80;2.33;;;;;;;34.77;25.28;99318.97;5014524;28;20268;-66
2023/07/29 06:54:37;;;;;;;4.00;2.50;;;;;;;34.76;23.69;99325.66;5013793;28;20248;-66
2023/07/29 06:57:05;;;;;;;4.10;2.40;;;;;;;34.68;24.52;99323.88;5012992;28;20202;-65
2023/07/29 06:59:31;;;;;;;2.55;2.30;;;;;;;34.70;23.87;99321.56;5013641;28;20217;-65
2023/07/29 07:01:59;;;;;;;4.25;2.50;;;;;;;34.83;24.28;99320.31;5013425;28;20194;-67
2023/07/29 07:04:26;;;;;;;6.30;3.05;;;;;;;34.64;24.13;99319.44;5012576;28;20197;-65
2023/07/29 07:06:54;;;;;;;3.25;2.50;;;;;;;34.80;24.31;99317.47;5010957;28;20243;-65
2023/07/29 07:09:21;;;;;;;3.00;2.80;;;;;;;34.60;24.11;99315.78;5011401;28;20190;-65
2023/07/29 07:11:47;;;;;;;3.00;2.30;;;;;;;34.57;24.49;99313.75;5011883;28;20190;-65
2023/07/29 07:14:14;;;;;;;3.50;2.38;;;;;;;34.63;24.57;99309.56;5010668;28;20748;-65
2023/07/29 07:16:41;;;;;;;2.97;2.78;;;;;;;34.76;24.43;99308.28;5012630;28;20228;-64
2023/07/29 07:19:08;;;;;;;5.63;2.58;;;;;;;34.94;24.19;99292.97;5011490;28;20217;-66
2023/07/29 07:21:34;;;;;;;4.50;2.70;;;;;;;34.85;24.00;99295.09;5013324;28;20198;-66
2023/07/29 07:24:02;;;;;;;2.63;2.42;;;;;;;34.92;24.17;99307.13;5011744;28;20253;-63
2023/07/29 07:26:29;;;;;;;2.95;2.75;;;;;;;34.83;24.97;99292.69;5012060;28;20248;-63
2023/07/29 07:28:56;;;;;;;2.47;2.28;;;;;;;35.13;24.48;99292.97;5013237;28;20255;-64
2023/07/29 07:31:23;;;;;;;4.30;2.85;;;;;;;35.24;24.04;99288.47;5011164;28;20217;-65
2023/07/29 07:33:49;;;;;;;2.70;2.50;;;;;;;35.46;23.61;99287.75;5012123;28;20202;-64
2023/07/29 07:36:16;;;;;;;4.20;2.50;;;;;;;35.54;23.65;99284.75;5008874;28;20442;-65
2023/07/29 07:38:43;;;;;;;2.50;2.25;;;;;;;35.37;24.27;99281.66;5011733;28;20209;-65
2023/07/29 07:41:11;;;;;;;2.58;2.47;;;;;;;35.29;24.04;99285.44;5012668;28;20260;-65
2023/07/29 07:43:39;;;;;;;4.78;2.70;;;;;;;35.31;24.40;99280.34;5012225;28;20736;-64
2023/07/29 07:46:06;;;;;;;2.88;2.63;;;;;;;35.29;23.67;99274.38;5012904;28;20264;-66
2023/07/29 07:48:33;;;;;;;5.30;2.35;;;;;;;34.90;24.90;99275.50;5012174;28;20198;-65
2023/07/29 07:51:00;;;;;;;2.70;2.50;;;;;;;35.05;24.29;99274.63;5010221;28;20191;-65
2023/07/29 07:53:26;;;;;;;3.00;2.58;;;;;;;35.13;24.18;99268.09;5012622;28;20268;-64
2023/07/29 07:55:53;;;;;;;5.32;2.60;;;;;;;35.27;23.82;99268.41;5012763;28;20661;-66
2023/07/29 07:58:21;;;;;;;2.90;2.22;;;;;;;35.40;24.36;99269.88;5012829;28;20190;-64
2023/07/29 08:00:48;;;;;;;2.88;2.53;;;;;;;35.61;24.11;99257.28;5012098;28;20194;-64
2023/07/29 08:03:14;;;;;;;3.30;2.58;;;;;;;35.81;23.57;99260.81;5012932;28;20225;-65
2023/07/29 08:05:41;;;;;;;2.85;2.65;;;;;;;36.03;23.74;99262.75;5012040;28;20278;-64
2023/07/29 08:08:08;;;;;;;3.45;2.83;;;;;;;36.13;23.24;99251.88;5012716;28;20665;-64
2023/07/29 08:10:35;;;;;;;3.63;2.85;;;;;;;36.15;23.28;99248.75;5012087;28;20657;-65
2023/07/29 08:13:02;;;;;;;3.47;3.28;;;;;;;36.32;23.89;99256.56;5012131;28;20198;-65
2023/07/29 08:15:30;;;;;;;2.75;2.55;;;;;;;36.34;24.06;99251.47;5012869;28;20205;-64
2023/07/29 08:17:57;;;;;;;3.50;2.58;;;;;;;36.05;24.44;99250.16;5012665;28;20672;-65
2023/07/29 08:20:23;;;;;;;3.15;2.50;;;;;;;35.94;24.03;99237.34;5011791;28;20640;-65
2023/07/29 08:22:50;;;;;;;4.13;3.08;;;;;;;35.99;24.33;99242.56;5012450;28;20275;-65
2023/07/29 08:25:17;;;;;;;5.95;2.88;;;;;;;36.03;25.02;99235.09;5012782;28;20242;-64
2023/07/29 08:27:43;;;;;;;4.05;2.95;;;;;;;35.99;25.16;99240.59;5012311;28;20565;-65
2023/07/29 08:30:10;;;;;;;4.57;2.75;;;;;;;36.12;23.78;99238.41;5012597;28;20194;-65
2023/07/29 08:32:39;;;;;;;3.35;2.35;;;;;;;35.82;24.40;99230.03;5012434;28;20202;-65
2023/07/29 08:35:06;;;;;;;2.95;2.72;;;;;;;35.94;24.43;99231.81;5011013;28;20198;-66
2023/07/29 08:37:33;;;;;;;2.53;2.22;;;;;;;36.19;23.00;99228.28;5011062;28;20225;-64
2023/07/29 08:40:00;;;;;;;2.38;2.28;;;;;;;36.46;23.12;99223.56;5010375;28;20201;-66
2023/07/29 08:42:32;;;;;;;4.15;2.47;;;;;;;36.65;22.71;99217.91;5012038;28;20240;-64
2023/07/29 08:45:07;;;;;;;4.38;2.88;;;;;;;36.80;23.22;99216.97;5012226;28;20182;-64
2023/07/29 08:47:33;;;;;;;4.38;2.88;;;;;;;36.95;22.83;99204.88;5011432;28;20205;-65
2023/07/29 08:50:03;;;;;;;4.88;2.70;;;;;;;37.03;22.67;99206.56;5011562;28;20259;-64
2023/07/29 08:52:31;;;;;;;6.22;2.90;;;;;;;37.14;22.36;99210.28;5011093;28;20194;-65
2023/07/29 08:54:59;;;;;;;2.88;2.72;;;;;;;37.06;22.65;99198.28;5011457;28;20194;-65
2023/07/29 08:57:26;;;;;;;3.17;2.88;;;;;;;36.92;22.71;99200.91;5012003;28;20198;-63
2023/07/29 08:59:53;;;;;;;3.72;2.65;;;;;;;36.84;22.79;99201.19;5011477;28;20297;-64
2023/07/29 09:02:20;;;;;;;7.03;2.83;;;;;;;36.56;23.09;99206.31;5011063;28;20626;-63
2023/07/29 09:04:47;;;;;;;4.75;2.88;;;;;;;36.53;22.54;99182.94;5011917;28;20312;-64
2023/07/29 09:07:15;;;;;;;3.25;2.90;;;;;;;36.40;22.76;99211.22;5012155;28;20198;-63
2023/07/29 09:09:42;;;;;;;4.30;2.85;;;;;;;36.62;22.95;99207.59;5012399;28;20244;-63
2023/07/29 09:12:11;;;;;;;5.55;3.60;;;;;;;36.62;22.85;99197.31;5010194;28;20202;-62
2023/07/29 09:14:37;;;;;;;6.07;3.22;;;;;;;36.77;23.01;99201.09;5009886;28;20665;-63
2023/07/29 09:17:08;;;;;;;3.42;3.00;;;;;;;36.73;22.25;99197.47;5011739;28;20673;-63
2023/07/29 09:19:35;;;;;;;3.20;3.00;;;;;;;36.76;22.25;99183.69;5012296;28;20240;-63
2023/07/29 09:22:02;;;;;;;3.10;2.90;;;;;;;36.35;23.52;99181.91;5011747;28;20216;-62
2023/07/29 09:24:32;;;;;;;3.20;3.00;;;;;;;36.36;22.38;99182.69;5011416;28;20230;-61
2023/07/29 09:26:58;;;;;;;5.85;3.70;;;;;;;36.51;22.08;99178.97;5012200;28;20196;-63
2023/07/29 09:29:29;;;;;;;4.13;2.75;;;;;;;36.51;21.86;99178.97;5011106;28;20202;-63
2023/07/29 09:32:19;;;;;;;3.38;2.97;;;;;;;36.55;22.38;99171.50;5012037;28;20221;-66
2023/07/29 09:34:45;;;;;;;5.00;3.17;;;;;;;36.46;23.20;99160.69;5012152;28;20190;-65
2023/07/29 09:37:16;;;;;;;5.03;3.22;;;;;;;36.48;23.41;99169.44;5011406;28;20198;-61
2023/07/29 09:39:46;;;;;;;4.22;3.53;;;;;;;36.42;22.67;99153.53;5012100;28;20194;-63
2023/07/29 09:42:19;;;;;;;3.35;3.15;;;;;;;36.38;24.58;99147.16;5010966;28;20190;-63
2023/07/29 09:44:45;;;;;;;4.45;3.00;;;;;;;36.58;24.09;99141.09;5011578;28;20214;-62
2023/07/29 09:47:21;;;;;;;3.00;2.72;;;;;;;36.70;22.68;99149.19;5010972;28;20194;-63
2023/07/29 09:49:48;;;;;;;3.30;3.00;;;;;;;36.66;22.31;99142.00;5011593;28;20182;-64
2023/07/29 09:52:16;;;;;;;5.80;2.85;;;;;;;36.06;22.06;99151.41;5011346;28;20202;-64
2023/07/29 09:54:44;;;;;;;2.70;2.60;;;;;;;35.88;21.27;99153.09;5011721;28;20622;-64
2023/07/29 09:57:14;;;;;;;2.80;2.63;;;;;;;35.86;21.07;99152.66;5010263;28;20669;-64
2023/07/29 09:59:41;;;;;;;2.85;2.67;;;;;;;35.96;21.62;99140.94;5009082;28;20190;-64
2023/07/29 10:02:14;;;;;;;3.58;3.20;;;;;;;35.98;21.50;99138.63;5008006;28;20750;-63
2023/07/29 10:04:42;;;;;;;6.80;2.92;;;;;;;36.12;21.51;99136.06;5010153;28;20203;-63
2023/07/29 10:07:10;;;;;;;3.03;2.80;;;;;;;36.30;21.62;99145.47;5008232;28;20189;-64
2023/07/29 10:09:38;;;;;;;6.93;2.90;;;;;;;36.21;21.24;99147.69;5008357;28;20186;-64
2023/07/29 10:12:07;;;;;;;2.45;2.28;;;;;;;36.42;21.17;99139.69;5012123;28;20198;-68
2023/07/29 10:14:36;;;;;;;2.58;2.47;;;;;;;36.60;20.44;99132.41;5012156;28;20665;-67
2023/07/29 10:17:04;;;;;;;2.50;2.30;;;;;;;36.37;21.01;99132.50;5013970;28;20255;-68
2023/07/29 10:19:31;;;;;;;2.70;2.53;;;;;;;36.17;20.70;99133.00;5012065;28;20236;-68
2023/07/29 10:22:01;;;;;;;2.97;2.60;;;;;;;35.90;20.92;99126.66;5013589;28;20216;-66
2023/07/29 10:24:31;;;;;;;3.92;2.50;;;;;;;35.44;21.28;99132.56;5012807;28;20329;-63
2023/07/29 10:26:59;;;;;;;2.85;2.20;;;;;;;35.41;20.91;99131.34;5011948;28;20228;-65
2023/07/29 10:29:31;;;;;;;3.00;2.90;;;;;;;35.67;21.01;99130.56;5012877;28;20285;-63
2023/07/29 10:32:03;;;;;;;2.88;2.60;;;;;;;35.94;21.90;99123.94;5012620;28;20646;-64
2023/07/29 10:34:31;;;;;;;4.18;2.42;;;;;;;35.91;22.28;99116.38;5013599;28;20193;-66
2023/07/29 10:36:58;;;;;;;3.20;2.50;;;;;;;35.98;21.49;99110.97;5014327;28;20206;-67
2023/07/29 10:39:25;;;;;;;3.80;2.38;;;;;;;36.13;20.76;99108.03;5011563;28;20252;-66
2023/07/29 10:42:01;;;;;;;2.60;2.40;;;;;;;36.24;20.44;99108.19;5011844;28;20190;-66
2023/07/29 10:44:49;;;;;;;2.78;2.25;;;;;;;36.32;20.36;99105.16;5011523;28;20916;-66
2023/07/29 10:47:18;;;;;;;2.70;2.15;;;;;;;36.40;21.00;99106.84;5002268;28;20202;-64
2023/07/29 10:49:46;;;;;;;3.83;2.45;;;;;;;36.56;21.33;99092.81;5013072;28;20922;-65
2023/07/29 10:52:15;;;;;;;2.10;2.00;;;;;;;36.53;20.14;99108.19;5012434;28;20228;-64
2023/07/29 10:54:45;;;;;;;2.00;1.90;;;;;;;35.99;20.74;99096.78;5011989;28;20284;-68
2023/07/29 10:57:16;;;;;;;1.98;1.83;;;;;;;36.17;20.28;99091.50;5011320;28;20839;-66
2023/07/29 10:59:55;;;;;;;3.50;2.65;;;;;;;35.92;20.31;99090.31;5010914;28;20198;-65
2023/07/29 11:02:30;;;;;;;4.70;2.78;;;;;;;35.90;21.51;99089.91;5013518;28;20217;-67
2023/07/29 11:04:57;;;;;;;2.90;2.70;;;;;;;35.98;20.63;99084.13;5013163;28;20586;-67
2023/07/29 11:07:27;;;;;;;2.35;2.05;;;;;;;35.85;21.20;99084.69;5013225;28;20262;-67
2023/07/29 11:10:02;;;;;;;2.45;2.35;;;;;;;35.68;20.71;99079.69;5012872;28;20325;-66
2023/07/29 11:12:45;;;;;;;6.50;2.20;;;;;;;36.03;20.52;99069.16;5009662;28;20661;-65
2023/07/29 11:15:16;;;;;;;2.00;1.90;;;;;;;35.65;20.26;99074.88;5010679;28;20252;-64
2023/07/29 11:17:47;;;;;;;2.45;2.33;;;;;;;35.72;20.60;99075.00;5011908;28;20248;-67
2023/07/29 11:20:15;;;;;;;3.08;2.45;;;;;;;35.43;20.52;99062.69;5011564;28;20565;-68
2023/07/29 11:22:42;;;;;;;2.80;2.63;;;;;;;35.72;21.18;99067.50;5012213;28;20182;-63
2023/07/29 11:25:11;;;;;;;2.60;2.40;;;;;;;35.72;20.10;99064.72;5014046;28;20238;-64
2023/07/29 11:27:38;;;;;;;2.47;2.30;;;;;;;35.86;19.83;99059.44;5006997;28;20229;-62
2023/07/29 11:30:06;;;;;;;2.22;2.13;;;;;;;35.73;19.97;99057.25;5012879;28;20749;-62
2023/07/29 11:32:33;;;;;;;2.40;2.30;;;;;;;35.72;20.21;99053.66;5012830;28;20194;-62
2023/07/29 11:35:04;;;;;;;3.42;1.98;;;;;;;35.69;19.78;99056.38;5012879;28;20198;-63
2023/07/29 11:37:31;;;;;;;3.83;2.10;;;;;;;35.83;19.81;99053.84;5013775;28;20182;-63